Muscat, Oman
Current Conditions -  °F | °C
As of 7:50 PM on Friday 24 Oct 2014 (Local Time) from OOMS Reporting Station
Clear Clear  
Wind Chill: 29°   Ceiling: Unl
Heat Index: 34°   Visibility: 6mi
Dew Point: 24°   Wind: 8mph
Humidity: 74%   Direction: 60°ENE
Pressure: 29.85"   Gusts: NA
Location:  23.61°N, 58.54°E
Report Text: OOMS 241550Z 06007KT CAVOK 29/24 Q1011 NOSIG
Loading
Personal Weather Stations






























Interactive Weather Map
Tropical Storm Tracking
New forecast layout! Learn more

10-Day Weather Forecast

Advertisements
Track Severe Weather on mobile